sensor_id;sensor_type;location;lat;lon;timestamp;P1;durP1;ratioP1;P2;durP2;ratioP2
8474;SDS011;4274;52.012;8.448;2023-04-25T00:01:36;66.80;;;7.53;;
8474;SDS011;4274;52.012;8.448;2023-04-25T00:04:02;62.80;;;7.00;;
8474;SDS011;4274;52.012;8.448;2023-04-25T00:06:30;57.20;;;8.30;;
8474;SDS011;4274;52.012;8.448;2023-04-25T00:08:57;56.17;;;7.40;;
8474;SDS011;4274;52.012;8.448;2023-04-25T00:11:23;53.67;;;7.20;;
8474;SDS011;4274;52.012;8.448;2023-04-25T00:13:49;60.27;;;7.70;;
8474;SDS011;4274;52.012;8.448;2023-04-25T00:16:19;54.50;;;7.00;;
8474;SDS011;4274;52.012;8.448;2023-04-25T00:18:44;57.20;;;7.83;;
8474;SDS011;4274;52.012;8.448;2023-04-25T00:21:16;50.23;;;6.43;;
8474;SDS011;4274;52.012;8.448;2023-04-25T00:23:43;55.63;;;7.90;;
8474;SDS011;4274;52.012;8.448;2023-04-25T00:26:10;63.67;;;7.57;;
8474;SDS011;4274;52.012;8.448;2023-04-25T00:28:36;57.40;;;8.83;;
8474;SDS011;4274;52.012;8.448;2023-04-25T00:31:02;50.37;;;6.57;;
8474;SDS011;4274;52.012;8.448;2023-04-25T00:33:28;55.93;;;7.77;;
8474;SDS011;4274;52.012;8.448;2023-04-25T00:35:55;56.90;;;7.30;;
8474;SDS011;4274;52.012;8.448;2023-04-25T00:38:20;56.73;;;7.60;;
8474;SDS011;4274;52.012;8.448;2023-04-25T00:40:46;57.83;;;8.00;;
8474;SDS011;4274;52.012;8.448;2023-04-25T00:43:12;56.33;;;7.03;;
8474;SDS011;4274;52.012;8.448;2023-04-25T00:45:38;59.50;;;8.27;;
8474;SDS011;4274;52.012;8.448;2023-04-25T00:48:04;62.13;;;9.27;;
8474;SDS011;4274;52.012;8.448;2023-04-25T00:50:30;62.23;;;7.63;;
8474;SDS011;4274;52.012;8.448;2023-04-25T00:52:58;72.90;;;8.53;;
8474;SDS011;4274;52.012;8.448;2023-04-25T00:55:24;66.43;;;7.60;;
8474;SDS011;4274;52.012;8.448;2023-04-25T00:57:49;57.87;;;7.10;;
8474;SDS011;4274;52.012;8.448;2023-04-25T01:00:16;56.27;;;7.83;;
8474;SDS011;4274;52.012;8.448;2023-04-25T01:02:42;59.60;;;7.27;;
8474;SDS011;4274;52.012;8.448;2023-04-25T01:05:09;57.17;;;7.90;;
8474;SDS011;4274;52.012;8.448;2023-04-25T01:07:36;62.73;;;7.93;;
8474;SDS011;4274;52.012;8.448;2023-04-25T01:10:02;58.13;;;8.03;;
8474;SDS011;4274;52.012;8.448;2023-04-25T01:12:29;58.23;;;8.00;;
8474;SDS011;4274;52.012;8.448;2023-04-25T01:14:55;58.30;;;7.67;;
8474;SDS011;4274;52.012;8.448;2023-04-25T01:17:21;52.70;;;7.47;;
8474;SDS011;4274;52.012;8.448;2023-04-25T01:19:46;56.20;;;8.17;;
8474;SDS011;4274;52.012;8.448;2023-04-25T01:22:13;59.87;;;8.23;;
8474;SDS011;4274;52.012;8.448;2023-04-25T01:24:39;57.97;;;7.57;;
8474;SDS011;4274;52.012;8.448;2023-04-25T01:27:05;57.53;;;8.33;;
8474;SDS011;4274;52.012;8.448;2023-04-25T01:29:31;59.77;;;8.50;;
8474;SDS011;4274;52.012;8.448;2023-04-25T01:31:58;57.70;;;8.20;;
8474;SDS011;4274;52.012;8.448;2023-04-25T01:34:25;56.00;;;8.83;;
8474;SDS011;4274;52.012;8.448;2023-04-25T01:36:51;52.40;;;8.13;;
8474;SDS011;4274;52.012;8.448;2023-04-25T01:39:17;53.83;;;8.73;;
8474;SDS011;4274;52.012;8.448;2023-04-25T01:41:44;58.13;;;8.00;;
8474;SDS011;4274;52.012;8.448;2023-04-25T01:44:10;54.67;;;8.57;;
8474;SDS011;4274;52.012;8.448;2023-04-25T01:46:36;51.70;;;8.40;;
8474;SDS011;4274;52.012;8.448;2023-04-25T01:49:02;53.33;;;8.43;;
8474;SDS011;4274;52.012;8.448;2023-04-25T01:51:28;61.33;;;9.33;;
8474;SDS011;4274;52.012;8.448;2023-04-25T01:53:53;61.10;;;8.63;;
8474;SDS011;4274;52.012;8.448;2023-04-25T01:56:19;57.27;;;7.87;;
8474;SDS011;4274;52.012;8.448;2023-04-25T01:58:45;53.17;;;8.63;;
8474;SDS011;4274;52.012;8.448;2023-04-25T02:01:11;53.87;;;8.07;;
8474;SDS011;4274;52.012;8.448;2023-04-25T02:03:37;66.97;;;8.53;;
8474;SDS011;4274;52.012;8.448;2023-04-25T02:06:02;56.83;;;8.67;;
8474;SDS011;4274;52.012;8.448;2023-04-25T02:08:28;58.87;;;9.37;;
8474;SDS011;4274;52.012;8.448;2023-04-25T02:10:55;58.57;;;9.53;;
8474;SDS011;4274;52.012;8.448;2023-04-25T02:13:20;52.33;;;9.30;;
8474;SDS011;4274;52.012;8.448;2023-04-25T02:15:46;59.13;;;8.90;;
8474;SDS011;4274;52.012;8.448;2023-04-25T02:18:11;55.07;;;8.00;;
8474;SDS011;4274;52.012;8.448;2023-04-25T02:20:37;58.27;;;8.47;;
8474;SDS011;4274;52.012;8.448;2023-04-25T02:23:03;54.10;;;7.83;;
8474;SDS011;4274;52.012;8.448;2023-04-25T02:25:29;52.33;;;7.10;;
8474;SDS011;4274;52.012;8.448;2023-04-25T02:27:54;53.70;;;9.47;;
8474;SDS011;4274;52.012;8.448;2023-04-25T02:30:20;49.13;;;7.50;;
8474;SDS011;4274;52.012;8.448;2023-04-25T02:32:45;54.83;;;7.13;;
8474;SDS011;4274;52.012;8.448;2023-04-25T02:35:11;53.63;;;7.27;;
8474;SDS011;4274;52.012;8.448;2023-04-25T02:37:37;57.60;;;7.20;;
8474;SDS011;4274;52.012;8.448;2023-04-25T02:40:04;58.63;;;7.17;;
8474;SDS011;4274;52.012;8.448;2023-04-25T02:42:30;57.23;;;7.40;;
8474;SDS011;4274;52.012;8.448;2023-04-25T02:44:56;58.80;;;7.07;;
8474;SDS011;4274;52.012;8.448;2023-04-25T02:47:22;62.27;;;7.00;;
8474;SDS011;4274;52.012;8.448;2023-04-25T02:49:47;56.70;;;5.50;;
8474;SDS011;4274;52.012;8.448;2023-04-25T02:52:13;67.13;;;6.73;;
8474;SDS011;4274;52.012;8.448;2023-04-25T02:54:39;56.40;;;5.80;;
8474;SDS011;4274;52.012;8.448;2023-04-25T02:57:05;70.03;;;6.93;;
8474;SDS011;4274;52.012;8.448;2023-04-25T02:59:31;57.30;;;6.67;;
8474;SDS011;4274;52.012;8.448;2023-04-25T03:01:56;74.23;;;6.17;;
8474;SDS011;4274;52.012;8.448;2023-04-25T03:04:22;58.93;;;6.33;;
8474;SDS011;4274;52.012;8.448;2023-04-25T03:06:49;61.13;;;6.10;;
8474;SDS011;4274;52.012;8.448;2023-04-25T03:09:18;58.10;;;6.37;;
8474;SDS011;4274;52.012;8.448;2023-04-25T03:11:44;63.10;;;6.17;;
8474;SDS011;4274;52.012;8.448;2023-04-25T03:14:10;54.20;;;5.93;;
8474;SDS011;4274;52.012;8.448;2023-04-25T03:16:35;61.47;;;6.90;;
8474;SDS011;4274;52.012;8.448;2023-04-25T03:19:01;62.53;;;9.17;;
8474;SDS011;4274;52.012;8.448;2023-04-25T03:21:31;55.80;;;5.90;;
8474;SDS011;4274;52.012;8.448;2023-04-25T03:23:58;56.43;;;6.60;;
8474;SDS011;4274;52.012;8.448;2023-04-25T03:26:24;59.93;;;6.50;;
8474;SDS011;4274;52.012;8.448;2023-04-25T03:28:50;58.70;;;7.63;;
8474;SDS011;4274;52.012;8.448;2023-04-25T03:31:15;55.13;;;6.70;;
8474;SDS011;4274;52.012;8.448;2023-04-25T03:33:41;56.80;;;7.37;;
8474;SDS011;4274;52.012;8.448;2023-04-25T03:36:06;51.13;;;6.27;;
8474;SDS011;4274;52.012;8.448;2023-04-25T03:38:32;59.03;;;6.07;;
8474;SDS011;4274;52.012;8.448;2023-04-25T03:40:58;59.90;;;6.43;;
8474;SDS011;4274;52.012;8.448;2023-04-25T03:43:23;66.40;;;6.33;;
8474;SDS011;4274;52.012;8.448;2023-04-25T03:45:49;68.10;;;7.63;;
8474;SDS011;4274;52.012;8.448;2023-04-25T03:48:15;56.73;;;6.40;;
8474;SDS011;4274;52.012;8.448;2023-04-25T03:50:41;56.13;;;6.70;;
8474;SDS011;4274;52.012;8.448;2023-04-25T03:53:06;62.67;;;6.70;;
8474;SDS011;4274;52.012;8.448;2023-04-25T03:55:32;61.20;;;7.10;;
8474;SDS011;4274;52.012;8.448;2023-04-25T03:57:57;53.73;;;5.60;;
8474;SDS011;4274;52.012;8.448;2023-04-25T04:00:23;74.33;;;7.20;;
8474;SDS011;4274;52.012;8.448;2023-04-25T04:02:49;54.00;;;6.83;;
8474;SDS011;4274;52.012;8.448;2023-04-25T04:05:15;57.30;;;8.07;;
8474;SDS011;4274;52.012;8.448;2023-04-25T04:07:41;59.27;;;7.70;;
8474;SDS011;4274;52.012;8.448;2023-04-25T04:10:07;54.27;;;7.20;;
8474;SDS011;4274;52.012;8.448;2023-04-25T04:12:34;53.10;;;7.47;;
8474;SDS011;4274;52.012;8.448;2023-04-25T04:14:59;55.53;;;7.20;;
8474;SDS011;4274;52.012;8.448;2023-04-25T04:17:25;60.50;;;7.50;;
8474;SDS011;4274;52.012;8.448;2023-04-25T04:19:51;56.83;;;7.47;;
8474;SDS011;4274;52.012;8.448;2023-04-25T04:22:17;66.37;;;7.90;;
8474;SDS011;4274;52.012;8.448;2023-04-25T04:24:42;76.30;;;8.97;;
8474;SDS011;4274;52.012;8.448;2023-04-25T04:27:11;54.67;;;6.77;;
8474;SDS011;4274;52.012;8.448;2023-04-25T04:29:37;53.33;;;6.50;;
8474;SDS011;4274;52.012;8.448;2023-04-25T04:32:03;57.07;;;7.70;;
8474;SDS011;4274;52.012;8.448;2023-04-25T04:34:30;60.90;;;6.50;;
8474;SDS011;4274;52.012;8.448;2023-04-25T04:36:56;68.40;;;7.77;;
8474;SDS011;4274;52.012;8.448;2023-04-25T04:39:21;63.53;;;6.43;;
8474;SDS011;4274;52.012;8.448;2023-04-25T04:41:47;55.30;;;8.07;;
8474;SDS011;4274;52.012;8.448;2023-04-25T04:44:13;59.70;;;7.63;;
8474;SDS011;4274;52.012;8.448;2023-04-25T04:46:39;60.80;;;8.60;;
8474;SDS011;4274;52.012;8.448;2023-04-25T04:49:07;53.47;;;6.57;;
8474;SDS011;4274;52.012;8.448;2023-04-25T04:51:34;59.67;;;7.30;;
8474;SDS011;4274;52.012;8.448;2023-04-25T04:53:59;59.63;;;7.13;;
8474;SDS011;4274;52.012;8.448;2023-04-25T04:56:27;65.67;;;8.20;;
8474;SDS011;4274;52.012;8.448;2023-04-25T04:58:55;63.83;;;9.30;;
8474;SDS011;4274;52.012;8.448;2023-04-25T05:01:21;74.17;;;7.70;;
8474;SDS011;4274;52.012;8.448;2023-04-25T05:03:47;57.00;;;7.63;;
8474;SDS011;4274;52.012;8.448;2023-04-25T05:06:13;56.10;;;7.53;;
8474;SDS011;4274;52.012;8.448;2023-04-25T05:08:38;70.40;;;8.97;;
8474;SDS011;4274;52.012;8.448;2023-04-25T05:11:04;61.70;;;7.97;;
8474;SDS011;4274;52.012;8.448;2023-04-25T05:13:30;58.97;;;7.40;;
8474;SDS011;4274;52.012;8.448;2023-04-25T05:15:55;57.00;;;7.63;;
8474;SDS011;4274;52.012;8.448;2023-04-25T05:18:21;61.77;;;8.77;;
8474;SDS011;4274;52.012;8.448;2023-04-25T05:20:47;70.87;;;8.50;;
8474;SDS011;4274;52.012;8.448;2023-04-25T05:23:12;55.20;;;8.30;;
8474;SDS011;4274;52.012;8.448;2023-04-25T05:25:38;57.77;;;7.27;;
8474;SDS011;4274;52.012;8.448;2023-04-25T05:28:03;56.00;;;7.63;;
8474;SDS011;4274;52.012;8.448;2023-04-25T05:30:30;60.53;;;7.57;;
8474;SDS011;4274;52.012;8.448;2023-04-25T05:32:56;50.70;;;6.90;;
8474;SDS011;4274;52.012;8.448;2023-04-25T05:35:21;59.27;;;8.37;;
8474;SDS011;4274;52.012;8.448;2023-04-25T05:37:47;58.10;;;7.20;;
8474;SDS011;4274;52.012;8.448;2023-04-25T05:40:12;62.07;;;7.73;;
8474;SDS011;4274;52.012;8.448;2023-04-25T05:42:38;55.10;;;6.27;;
8474;SDS011;4274;52.012;8.448;2023-04-25T05:45:04;55.67;;;7.10;;
8474;SDS011;4274;52.012;8.448;2023-04-25T05:47:30;60.77;;;6.63;;
8474;SDS011;4274;52.012;8.448;2023-04-25T05:49:56;51.73;;;6.30;;
8474;SDS011;4274;52.012;8.448;2023-04-25T05:52:21;71.93;;;7.67;;
8474;SDS011;4274;52.012;8.448;2023-04-25T05:54:47;57.80;;;6.87;;
8474;SDS011;4274;52.012;8.448;2023-04-25T05:57:22;62.47;;;6.53;;
8474;SDS011;4274;52.012;8.448;2023-04-25T05:59:49;72.50;;;7.40;;
8474;SDS011;4274;52.012;8.448;2023-04-25T06:02:15;65.50;;;7.70;;
8474;SDS011;4274;52.012;8.448;2023-04-25T06:04:41;66.50;;;6.60;;
8474;SDS011;4274;52.012;8.448;2023-04-25T06:07:06;59.40;;;7.40;;
8474;SDS011;4274;52.012;8.448;2023-04-25T06:09:32;56.67;;;6.43;;
8474;SDS011;4274;52.012;8.448;2023-04-25T06:11:57;55.50;;;7.87;;
8474;SDS011;4274;52.012;8.448;2023-04-25T06:14:23;58.30;;;6.43;;
8474;SDS011;4274;52.012;8.448;2023-04-25T06:16:48;69.13;;;6.37;;
8474;SDS011;4274;52.012;8.448;2023-04-25T06:19:14;65.63;;;7.07;;
8474;SDS011;4274;52.012;8.448;2023-04-25T06:21:40;59.50;;;6.03;;
8474;SDS011;4274;52.012;8.448;2023-04-25T06:24:06;53.67;;;5.67;;
8474;SDS011;4274;52.012;8.448;2023-04-25T06:26:32;62.53;;;6.20;;
8474;SDS011;4274;52.012;8.448;2023-04-25T06:28:58;61.10;;;6.80;;
8474;SDS011;4274;52.012;8.448;2023-04-25T06:31:23;57.93;;;6.40;;
8474;SDS011;4274;52.012;8.448;2023-04-25T06:33:49;62.33;;;7.23;;
8474;SDS011;4274;52.012;8.448;2023-04-25T06:36:14;63.00;;;7.53;;
8474;SDS011;4274;52.012;8.448;2023-04-25T06:38:40;61.13;;;7.70;;
8474;SDS011;4274;52.012;8.448;2023-04-25T06:41:06;54.13;;;6.43;;
8474;SDS011;4274;52.012;8.448;2023-04-25T06:43:31;54.53;;;5.57;;
8474;SDS011;4274;52.012;8.448;2023-04-25T06:45:58;65.03;;;6.13;;
8474;SDS011;4274;52.012;8.448;2023-04-25T06:48:25;61.00;;;6.20;;
8474;SDS011;4274;52.012;8.448;2023-04-25T06:50:51;61.90;;;7.53;;
8474;SDS011;4274;52.012;8.448;2023-04-25T06:53:17;52.17;;;5.40;;
8474;SDS011;4274;52.012;8.448;2023-04-25T06:55:43;59.67;;;6.37;;
8474;SDS011;4274;52.012;8.448;2023-04-25T06:58:09;50.27;;;5.63;;
8474;SDS011;4274;52.012;8.448;2023-04-25T07:00:34;54.33;;;6.37;;
8474;SDS011;4274;52.012;8.448;2023-04-25T07:03:01;64.27;;;7.27;;
8474;SDS011;4274;52.012;8.448;2023-04-25T07:05:27;58.00;;;6.40;;
8474;SDS011;4274;52.012;8.448;2023-04-25T07:07:52;53.13;;;5.17;;
8474;SDS011;4274;52.012;8.448;2023-04-25T07:10:18;51.73;;;5.10;;
8474;SDS011;4274;52.012;8.448;2023-04-25T07:12:43;54.70;;;5.60;;
8474;SDS011;4274;52.012;8.448;2023-04-25T07:15:09;64.43;;;5.40;;
8474;SDS011;4274;52.012;8.448;2023-04-25T07:17:36;56.07;;;5.30;;
8474;SDS011;4274;52.012;8.448;2023-04-25T07:20:02;58.17;;;5.97;;
8474;SDS011;4274;52.012;8.448;2023-04-25T07:22:28;58.10;;;5.00;;
8474;SDS011;4274;52.012;8.448;2023-04-25T07:24:54;55.20;;;5.40;;
8474;SDS011;4274;52.012;8.448;2023-04-25T07:27:20;66.87;;;4.90;;
8474;SDS011;4274;52.012;8.448;2023-04-25T07:29:46;59.93;;;5.27;;
8474;SDS011;4274;52.012;8.448;2023-04-25T07:32:11;54.90;;;5.93;;
8474;SDS011;4274;52.012;8.448;2023-04-25T07:34:38;49.57;;;4.17;;
8474;SDS011;4274;52.012;8.448;2023-04-25T07:37:04;60.40;;;4.77;;
8474;SDS011;4274;52.012;8.448;2023-04-25T07:39:30;52.70;;;4.57;;
8474;SDS011;4274;52.012;8.448;2023-04-25T07:41:56;59.80;;;5.80;;
8474;SDS011;4274;52.012;8.448;2023-04-25T07:44:23;51.93;;;5.20;;
8474;SDS011;4274;52.012;8.448;2023-04-25T07:46:50;53.27;;;5.27;;
8474;SDS011;4274;52.012;8.448;2023-04-25T07:49:16;58.70;;;4.77;;
8474;SDS011;4274;52.012;8.448;2023-04-25T07:51:41;51.03;;;4.40;;
8474;SDS011;4274;52.012;8.448;2023-04-25T07:54:08;49.07;;;4.50;;
8474;SDS011;4274;52.012;8.448;2023-04-25T07:56:34;56.97;;;4.50;;
8474;SDS011;4274;52.012;8.448;2023-04-25T07:59:00;51.33;;;4.10;;
8474;SDS011;4274;52.012;8.448;2023-04-25T08:01:26;49.93;;;4.30;;
8474;SDS011;4274;52.012;8.448;2023-04-25T08:03:52;49.30;;;4.60;;
8474;SDS011;4274;52.012;8.448;2023-04-25T08:06:17;49.23;;;4.90;;
8474;SDS011;4274;52.012;8.448;2023-04-25T08:08:43;51.57;;;4.30;;
8474;SDS011;4274;52.012;8.448;2023-04-25T08:11:09;58.40;;;4.73;;
8474;SDS011;4274;52.012;8.448;2023-04-25T08:13:35;50.13;;;3.67;;
8474;SDS011;4274;52.012;8.448;2023-04-25T08:16:01;52.57;;;4.07;;
8474;SDS011;4274;52.012;8.448;2023-04-25T08:18:26;49.90;;;3.90;;
8474;SDS011;4274;52.012;8.448;2023-04-25T08:20:52;53.83;;;4.17;;
8474;SDS011;4274;52.012;8.448;2023-04-25T08:23:17;54.83;;;4.87;;
8474;SDS011;4274;52.012;8.448;2023-04-25T08:25:43;49.67;;;3.30;;
8474;SDS011;4274;52.012;8.448;2023-04-25T08:28:08;56.93;;;3.90;;
8474;SDS011;4274;52.012;8.448;2023-04-25T08:30:34;55.23;;;4.60;;
8474;SDS011;4274;52.012;8.448;2023-04-25T08:33:01;53.10;;;4.50;;
8474;SDS011;4274;52.012;8.448;2023-04-25T08:35:27;52.60;;;3.13;;
8474;SDS011;4274;52.012;8.448;2023-04-25T08:37:53;49.53;;;3.40;;
8474;SDS011;4274;52.012;8.448;2023-04-25T08:40:19;51.27;;;3.77;;
8474;SDS011;4274;52.012;8.448;2023-04-25T08:42:51;55.50;;;3.73;;
8474;SDS011;4274;52.012;8.448;2023-04-25T08:45:18;49.83;;;3.40;;
8474;SDS011;4274;52.012;8.448;2023-04-25T08:47:44;45.87;;;3.27;;
8474;SDS011;4274;52.012;8.448;2023-04-25T08:50:10;51.90;;;3.50;;
8474;SDS011;4274;52.012;8.448;2023-04-25T08:52:37;54.73;;;3.80;;
8474;SDS011;4274;52.012;8.448;2023-04-25T08:55:12;47.97;;;3.83;;
8474;SDS011;4274;52.012;8.448;2023-04-25T08:57:39;53.63;;;4.00;;
8474;SDS011;4274;52.012;8.448;2023-04-25T09:00:08;53.60;;;3.97;;
8474;SDS011;4274;52.012;8.448;2023-04-25T09:02:34;53.00;;;3.70;;
8474;SDS011;4274;52.012;8.448;2023-04-25T09:05:00;48.47;;;3.77;;
8474;SDS011;4274;52.012;8.448;2023-04-25T09:07:27;49.70;;;3.80;;
8474;SDS011;4274;52.012;8.448;2023-04-25T09:09:53;53.47;;;4.70;;
8474;SDS011;4274;52.012;8.448;2023-04-25T09:12:19;50.13;;;4.27;;
8474;SDS011;4274;52.012;8.448;2023-04-25T09:15:00;48.97;;;3.53;;
8474;SDS011;4274;52.012;8.448;2023-04-25T09:17:33;49.13;;;4.43;;
8474;SDS011;4274;52.012;8.448;2023-04-25T09:20:14;53.90;;;4.13;;
8474;SDS011;4274;52.012;8.448;2023-04-25T09:22:40;48.13;;;3.33;;
8474;SDS011;4274;52.012;8.448;2023-04-25T09:25:11;48.17;;;3.00;;
8474;SDS011;4274;52.012;8.448;2023-04-25T09:27:51;51.90;;;3.00;;
8474;SDS011;4274;52.012;8.448;2023-04-25T09:30:18;45.50;;;2.90;;
8474;SDS011;4274;52.012;8.448;2023-04-25T09:32:43;49.77;;;3.70;;
8474;SDS011;4274;52.012;8.448;2023-04-25T09:35:10;50.47;;;3.73;;
8474;SDS011;4274;52.012;8.448;2023-04-25T09:37:36;50.00;;;3.73;;
8474;SDS011;4274;52.012;8.448;2023-04-25T09:40:04;51.50;;;3.53;;
8474;SDS011;4274;52.012;8.448;2023-04-25T09:42:32;50.03;;;3.20;;
8474;SDS011;4274;52.012;8.448;2023-04-25T09:45:01;47.17;;;3.33;;
8474;SDS011;4274;52.012;8.448;2023-04-25T09:47:28;48.47;;;3.30;;
8474;SDS011;4274;52.012;8.448;2023-04-25T09:49:54;50.90;;;3.80;;
8474;SDS011;4274;52.012;8.448;2023-04-25T09:52:20;51.60;;;3.60;;
8474;SDS011;4274;52.012;8.448;2023-04-25T09:54:50;49.63;;;3.07;;
8474;SDS011;4274;52.012;8.448;2023-04-25T09:57:18;45.90;;;3.20;;
8474;SDS011;4274;52.012;8.448;2023-04-25T10:02:15;44.90;;;3.17;;
8474;SDS011;4274;52.012;8.448;2023-04-25T10:04:44;48.70;;;3.17;;
8474;SDS011;4274;52.012;8.448;2023-04-25T10:07:12;45.87;;;3.00;;
8474;SDS011;4274;52.012;8.448;2023-04-25T10:09:39;49.70;;;3.20;;
8474;SDS011;4274;52.012;8.448;2023-04-25T10:12:06;44.37;;;3.53;;
8474;SDS011;4274;52.012;8.448;2023-04-25T10:14:32;48.80;;;3.83;;
8474;SDS011;4274;52.012;8.448;2023-04-25T10:16:58;51.40;;;3.67;;
8474;SDS011;4274;52.012;8.448;2023-04-25T10:19:25;43.50;;;2.80;;
8474;SDS011;4274;52.012;8.448;2023-04-25T10:21:54;48.13;;;3.40;;
8474;SDS011;4274;52.012;8.448;2023-04-25T10:24:36;48.17;;;3.70;;
8474;SDS011;4274;52.012;8.448;2023-04-25T10:27:03;43.27;;;2.93;;
8474;SDS011;4274;52.012;8.448;2023-04-25T10:29:29;50.57;;;3.53;;
8474;SDS011;4274;52.012;8.448;2023-04-25T10:31:55;47.00;;;3.53;;
8474;SDS011;4274;52.012;8.448;2023-04-25T10:34:38;45.70;;;3.37;;
8474;SDS011;4274;52.012;8.448;2023-04-25T10:37:04;52.10;;;3.90;;
8474;SDS011;4274;52.012;8.448;2023-04-25T10:39:33;47.37;;;3.50;;
8474;SDS011;4274;52.012;8.448;2023-04-25T10:41:59;44.90;;;2.77;;
8474;SDS011;4274;52.012;8.448;2023-04-25T10:44:27;47.53;;;3.83;;
8474;SDS011;4274;52.012;8.448;2023-04-25T10:47:00;52.10;;;3.30;;
8474;SDS011;4274;52.012;8.448;2023-04-25T10:49:38;46.60;;;3.03;;
8474;SDS011;4274;52.012;8.448;2023-04-25T10:52:10;46.23;;;3.30;;
8474;SDS011;4274;52.012;8.448;2023-04-25T10:54:47;48.33;;;3.30;;
8474;SDS011;4274;52.012;8.448;2023-04-25T10:57:26;47.23;;;2.70;;
8474;SDS011;4274;52.012;8.448;2023-04-25T11:00:06;52.47;;;3.33;;
8474;SDS011;4274;52.012;8.448;2023-04-25T11:02:40;49.73;;;2.67;;
8474;SDS011;4274;52.012;8.448;2023-04-25T11:05:07;46.10;;;2.97;;
8474;SDS011;4274;52.012;8.448;2023-04-25T11:07:38;51.43;;;3.27;;
8474;SDS011;4274;52.012;8.448;2023-04-25T11:10:18;49.20;;;3.27;;
8474;SDS011;4274;52.012;8.448;2023-04-25T11:12:45;60.63;;;3.47;;
8474;SDS011;4274;52.012;8.448;2023-04-25T11:15:12;52.50;;;4.00;;
8474;SDS011;4274;52.012;8.448;2023-04-25T11:17:38;46.40;;;3.20;;
8474;SDS011;4274;52.012;8.448;2023-04-25T11:20:05;54.07;;;3.40;;
8474;SDS011;4274;52.012;8.448;2023-04-25T11:22:36;51.53;;;3.40;;
8474;SDS011;4274;52.012;8.448;2023-04-25T11:25:06;52.30;;;3.10;;
8474;SDS011;4274;52.012;8.448;2023-04-25T11:27:52;50.47;;;2.90;;
8474;SDS011;4274;52.012;8.448;2023-04-25T11:30:19;52.33;;;2.70;;
8474;SDS011;4274;52.012;8.448;2023-04-25T11:32:45;48.80;;;2.80;;
8474;SDS011;4274;52.012;8.448;2023-04-25T11:35:11;49.17;;;2.80;;
8474;SDS011;4274;52.012;8.448;2023-04-25T11:37:41;51.53;;;2.87;;
8474;SDS011;4274;52.012;8.448;2023-04-25T11:40:08;51.83;;;3.30;;
8474;SDS011;4274;52.012;8.448;2023-04-25T11:42:53;60.70;;;3.17;;
8474;SDS011;4274;52.012;8.448;2023-04-25T11:45:19;44.77;;;2.70;;
8474;SDS011;4274;52.012;8.448;2023-04-25T11:47:44;48.73;;;2.67;;
8474;SDS011;4274;52.012;8.448;2023-04-25T11:50:11;46.83;;;2.80;;
8474;SDS011;4274;52.012;8.448;2023-04-25T11:52:37;48.13;;;2.90;;
8474;SDS011;4274;52.012;8.448;2023-04-25T11:55:14;45.87;;;2.77;;
8474;SDS011;4274;52.012;8.448;2023-04-25T11:57:41;48.90;;;3.10;;
8474;SDS011;4274;52.012;8.448;2023-04-25T12:00:20;49.87;;;2.80;;
8474;SDS011;4274;52.012;8.448;2023-04-25T12:02:50;51.70;;;3.10;;
8474;SDS011;4274;52.012;8.448;2023-04-25T12:05:17;47.97;;;2.70;;
8474;SDS011;4274;52.012;8.448;2023-04-25T12:07:44;44.37;;;3.10;;
8474;SDS011;4274;52.012;8.448;2023-04-25T12:10:11;45.70;;;3.30;;
8474;SDS011;4274;52.012;8.448;2023-04-25T12:12:41;46.93;;;2.90;;
8474;SDS011;4274;52.012;8.448;2023-04-25T12:15:15;47.63;;;3.37;;
8474;SDS011;4274;52.012;8.448;2023-04-25T12:17:48;46.13;;;3.20;;
8474;SDS011;4274;52.012;8.448;2023-04-25T12:20:15;45.70;;;3.03;;
8474;SDS011;4274;52.012;8.448;2023-04-25T12:22:46;45.97;;;2.60;;
8474;SDS011;4274;52.012;8.448;2023-04-25T12:33:31;47.83;;;3.17;;
8474;SDS011;4274;52.012;8.448;2023-04-25T12:36:02;48.07;;;2.60;;
8474;SDS011;4274;52.012;8.448;2023-04-25T12:38:35;46.60;;;2.50;;
8474;SDS011;4274;52.012;8.448;2023-04-25T12:41:03;46.40;;;3.00;;
8474;SDS011;4274;52.012;8.448;2023-04-25T12:43:28;46.07;;;2.60;;
8474;SDS011;4274;52.012;8.448;2023-04-25T12:45:54;49.30;;;3.13;;
8474;SDS011;4274;52.012;8.448;2023-04-25T12:48:21;51.80;;;2.80;;
8474;SDS011;4274;52.012;8.448;2023-04-25T12:50:47;44.33;;;2.20;;
8474;SDS011;4274;52.012;8.448;2023-04-25T12:53:14;46.97;;;2.23;;
8474;SDS011;4274;52.012;8.448;2023-04-25T12:55:41;46.73;;;2.70;;
8474;SDS011;4274;52.012;8.448;2023-04-25T12:58:06;45.80;;;2.60;;
8474;SDS011;4274;52.012;8.448;2023-04-25T13:00:32;46.10;;;2.47;;
8474;SDS011;4274;52.012;8.448;2023-04-25T13:02:58;46.33;;;2.40;;
8474;SDS011;4274;52.012;8.448;2023-04-25T13:05:24;45.80;;;2.87;;
8474;SDS011;4274;52.012;8.448;2023-04-25T13:07:50;48.70;;;2.60;;
8474;SDS011;4274;52.012;8.448;2023-04-25T13:10:16;46.20;;;2.20;;
8474;SDS011;4274;52.012;8.448;2023-04-25T13:12:42;46.90;;;2.60;;
8474;SDS011;4274;52.012;8.448;2023-04-25T13:15:08;44.63;;;2.57;;
8474;SDS011;4274;52.012;8.448;2023-04-25T13:17:36;44.40;;;2.37;;
8474;SDS011;4274;52.012;8.448;2023-04-25T13:20:05;47.10;;;2.53;;
8474;SDS011;4274;52.012;8.448;2023-04-25T13:22:33;44.47;;;2.70;;
8474;SDS011;4274;52.012;8.448;2023-04-25T13:25:01;43.10;;;2.30;;
8474;SDS011;4274;52.012;8.448;2023-04-25T13:27:27;44.33;;;2.10;;
8474;SDS011;4274;52.012;8.448;2023-04-25T13:29:53;45.90;;;2.93;;
8474;SDS011;4274;52.012;8.448;2023-04-25T13:32:19;43.60;;;2.50;;
8474;SDS011;4274;52.012;8.448;2023-04-25T13:34:45;46.30;;;2.67;;
8474;SDS011;4274;52.012;8.448;2023-04-25T13:37:10;45.23;;;2.80;;
8474;SDS011;4274;52.012;8.448;2023-04-25T13:39:36;43.37;;;2.73;;
8474;SDS011;4274;52.012;8.448;2023-04-25T13:42:02;46.43;;;3.03;;
8474;SDS011;4274;52.012;8.448;2023-04-25T13:44:28;49.43;;;2.60;;
8474;SDS011;4274;52.012;8.448;2023-04-25T13:46:53;44.73;;;2.60;;
8474;SDS011;4274;52.012;8.448;2023-04-25T13:49:19;42.77;;;2.40;;
8474;SDS011;4274;52.012;8.448;2023-04-25T13:51:45;45.70;;;2.70;;
8474;SDS011;4274;52.012;8.448;2023-04-25T13:54:10;44.73;;;2.53;;
8474;SDS011;4274;52.012;8.448;2023-04-25T13:56:36;43.17;;;2.20;;
8474;SDS011;4274;52.012;8.448;2023-04-25T13:59:01;43.20;;;2.33;;
8474;SDS011;4274;52.012;8.448;2023-04-25T14:01:27;43.90;;;2.23;;
8474;SDS011;4274;52.012;8.448;2023-04-25T14:03:55;42.77;;;2.13;;
8474;SDS011;4274;52.012;8.448;2023-04-25T14:06:20;44.97;;;2.60;;
8474;SDS011;4274;52.012;8.448;2023-04-25T14:08:49;46.53;;;2.80;;
8474;SDS011;4274;52.012;8.448;2023-04-25T14:11:15;48.13;;;2.97;;
8474;SDS011;4274;52.012;8.448;2023-04-25T14:13:42;45.17;;;2.97;;
8474;SDS011;4274;52.012;8.448;2023-04-25T14:16:08;46.60;;;2.83;;
8474;SDS011;4274;52.012;8.448;2023-04-25T14:18:34;45.23;;;2.67;;
8474;SDS011;4274;52.012;8.448;2023-04-25T14:21:00;44.43;;;2.43;;
8474;SDS011;4274;52.012;8.448;2023-04-25T14:23:26;51.90;;;2.67;;
8474;SDS011;4274;52.012;8.448;2023-04-25T14:25:51;43.33;;;2.37;;
8474;SDS011;4274;52.012;8.448;2023-04-25T14:28:17;43.00;;;2.40;;
8474;SDS011;4274;52.012;8.448;2023-04-25T14:30:43;44.53;;;2.40;;
8474;SDS011;4274;52.012;8.448;2023-04-25T14:33:08;47.27;;;3.00;;
8474;SDS011;4274;52.012;8.448;2023-04-25T14:35:34;46.37;;;2.20;;
8474;SDS011;4274;52.012;8.448;2023-04-25T14:38:00;46.87;;;2.27;;
8474;SDS011;4274;52.012;8.448;2023-04-25T14:40:26;43.97;;;2.57;;
8474;SDS011;4274;52.012;8.448;2023-04-25T14:42:51;44.97;;;2.20;;
8474;SDS011;4274;52.012;8.448;2023-04-25T14:45:17;46.73;;;2.63;;
8474;SDS011;4274;52.012;8.448;2023-04-25T14:47:43;43.80;;;2.60;;
8474;SDS011;4274;52.012;8.448;2023-04-25T14:50:08;47.87;;;2.57;;
8474;SDS011;4274;52.012;8.448;2023-04-25T14:52:35;45.40;;;2.80;;
8474;SDS011;4274;52.012;8.448;2023-04-25T14:55:01;44.10;;;2.73;;
8474;SDS011;4274;52.012;8.448;2023-04-25T14:57:29;48.33;;;2.80;;
8474;SDS011;4274;52.012;8.448;2023-04-25T14:59:56;45.20;;;2.63;;
8474;SDS011;4274;52.012;8.448;2023-04-25T15:02:21;43.40;;;2.53;;
8474;SDS011;4274;52.012;8.448;2023-04-25T15:04:48;46.00;;;2.67;;
8474;SDS011;4274;52.012;8.448;2023-04-25T15:07:13;44.07;;;2.60;;
8474;SDS011;4274;52.012;8.448;2023-04-25T15:09:40;47.60;;;3.17;;